createdAt,value
2019-02-11T00:00:51.167Z,7.62
2019-02-11T00:03:19.755Z,7.53
2019-02-11T00:05:48.851Z,7.50
2019-02-11T00:08:17.415Z,7.21
2019-02-11T00:10:45.963Z,7.21
2019-02-11T00:13:14.524Z,7.08
2019-02-11T00:15:43.076Z,7.00
2019-02-11T00:18:11.647Z,6.94
2019-02-11T00:20:40.198Z,6.80
2019-02-11T00:23:08.813Z,6.85
2019-02-11T00:25:37.399Z,6.70
2019-02-11T00:28:05.936Z,6.71
2019-02-11T00:30:34.495Z,6.65
2019-02-11T00:33:03.045Z,6.61
2019-02-11T00:35:31.654Z,6.54
2019-02-11T00:38:00.194Z,6.51
2019-02-11T00:40:28.735Z,6.46
2019-02-11T00:42:57.299Z,6.47
2019-02-11T00:45:25.895Z,6.37
2019-02-11T00:47:54.455Z,6.37
2019-02-11T00:50:23.030Z,6.38
2019-02-11T00:52:51.610Z,6.41
2019-02-11T00:55:20.153Z,6.30
2019-02-11T00:57:48.710Z,6.27
2019-02-11T01:00:17.265Z,6.24
2019-02-11T01:02:45.827Z,6.11
2019-02-11T01:05:14.391Z,6.09
2019-02-11T01:07:42.939Z,6.03
2019-02-11T01:10:12.139Z,6.06
2019-02-11T01:12:40.974Z,6.02
2019-02-11T01:15:11.477Z,5.86
2019-02-11T01:17:40.319Z,5.94
2019-02-11T01:20:10.924Z,5.94
2019-02-11T01:22:39.508Z,5.91
2019-02-11T01:25:08.813Z,5.81
2019-02-11T01:27:37.370Z,5.89
2019-02-11T01:30:09.257Z,5.82
2019-02-11T01:32:38.089Z,5.62
2019-02-11T01:35:07.759Z,5.35
2019-02-11T01:37:36.631Z,5.19
2019-02-11T01:40:08.724Z,5.10
2019-02-11T01:42:37.569Z,5.01
2019-02-11T01:45:11.715Z,4.76
2019-02-11T01:47:40.564Z,4.49
2019-02-11T01:50:11.537Z,4.32
2019-02-11T01:52:40.401Z,4.29
2019-02-11T01:55:09.508Z,4.09
2019-02-11T01:57:38.393Z,4.09
2019-02-11T02:00:10.520Z,3.87
2019-02-11T02:02:39.367Z,3.87
2019-02-11T02:05:09.144Z,3.91
2019-02-11T02:07:38.239Z,3.57
2019-02-11T02:10:13.267Z,3.60
2019-02-11T02:12:42.087Z,3.61
2019-02-11T02:15:13.589Z,3.61
2019-02-11T02:17:42.419Z,3.48
2019-02-11T02:20:15.583Z,3.43
2019-02-11T02:22:44.449Z,3.49
2019-02-11T02:25:13.281Z,3.31
2019-02-11T02:27:42.132Z,3.31
2019-02-11T02:30:13.218Z,3.51
2019-02-11T02:32:42.068Z,3.51
2019-02-11T02:35:10.909Z,3.54
2019-02-11T02:37:39.731Z,3.09
2019-02-11T02:40:10.126Z,3.21
2019-02-11T02:42:38.959Z,3.24
2019-02-11T02:45:09.434Z,3.23
2019-02-11T02:47:38.305Z,3.15
2019-02-11T02:50:09.291Z,3.16
2019-02-11T02:52:38.153Z,3.16
2019-02-11T02:55:08.326Z,3.13
2019-02-11T02:57:37.149Z,3.03
2019-02-11T03:00:11.149Z,2.85
2019-02-11T03:02:40.034Z,2.78
2019-02-11T03:05:09.649Z,2.62
2019-02-11T03:07:38.497Z,2.39
2019-02-11T03:10:11.360Z,2.40
2019-02-11T03:12:40.185Z,2.40
2019-02-11T03:15:10.869Z,2.46
2019-02-11T03:17:39.767Z,2.39
2019-02-11T03:20:09.751Z,2.36
2019-02-11T03:22:38.591Z,2.52
2019-02-11T03:25:08.581Z,2.57
2019-02-11T03:27:37.526Z,2.68
2019-02-11T03:30:09.294Z,2.76
2019-02-11T03:32:38.139Z,2.56
2019-02-11T03:35:07.596Z,2.47
2019-02-11T03:37:36.473Z,2.66
2019-02-11T03:40:07.883Z,2.62
2019-02-11T03:42:36.734Z,2.66
2019-02-11T03:45:08.906Z,2.74
2019-02-11T03:47:37.745Z,2.77
2019-02-11T03:50:09.562Z,2.80
2019-02-11T03:52:38.479Z,2.83
2019-02-11T03:55:08.266Z,2.86
2019-02-11T03:57:37.143Z,3.00
2019-02-11T04:00:09.555Z,3.06
2019-02-11T04:02:38.405Z,2.99
2019-02-11T04:05:07.813Z,3.14
2019-02-11T04:07:36.694Z,3.18
2019-02-11T04:10:10.381Z,3.30
2019-02-11T04:12:39.267Z,3.33
2019-02-11T04:15:09.167Z,3.44
2019-02-11T04:17:38.015Z,3.50
2019-02-11T04:20:08.340Z,3.52
2019-02-11T04:22:37.182Z,3.64
2019-02-11T04:25:07.269Z,3.67
2019-02-11T04:27:36.146Z,3.70
2019-02-11T04:30:07.370Z,3.75
2019-02-11T04:32:36.257Z,3.83
2019-02-11T04:35:06.297Z,3.93
2019-02-11T04:37:35.181Z,4.00
2019-02-11T04:40:06.047Z,4.06
2019-02-11T04:42:34.899Z,4.11
2019-02-11T04:45:04.246Z,4.14
2019-02-11T04:47:33.130Z,4.20
2019-02-11T04:50:02.051Z,4.20
2019-02-11T04:52:30.904Z,4.24
2019-02-11T04:54:59.759Z,4.29
2019-02-11T04:57:28.643Z,4.28
2019-02-11T04:59:57.480Z,4.35
2019-02-11T05:02:26.351Z,4.37
2019-02-11T05:04:55.226Z,4.37
2019-02-11T05:07:24.122Z,4.40
2019-02-11T05:09:52.975Z,4.46
2019-02-11T05:12:21.829Z,4.41
2019-02-11T05:14:50.690Z,4.47
2019-02-11T05:17:19.533Z,4.49
2019-02-11T05:19:48.393Z,4.50
2019-02-11T05:22:17.271Z,4.49
2019-02-11T05:24:46.111Z,4.49
2019-02-11T05:27:14.971Z,4.55
2019-02-11T05:29:43.821Z,4.54
2019-02-11T05:32:12.669Z,4.55
2019-02-11T05:34:41.504Z,4.60
2019-02-11T05:37:10.391Z,4.58
2019-02-11T05:39:39.236Z,4.61
2019-02-11T05:42:08.095Z,4.64
2019-02-11T05:44:36.951Z,4.66
2019-02-11T05:47:05.833Z,4.74
2019-02-11T05:49:34.699Z,4.73
2019-02-11T05:52:03.566Z,4.72
2019-02-11T05:54:32.417Z,4.70
2019-02-11T05:57:01.288Z,4.73
2019-02-11T05:59:30.137Z,4.79
2019-02-11T06:01:59.008Z,4.73
2019-02-11T06:04:27.856Z,4.76
2019-02-11T06:06:56.742Z,4.73
2019-02-11T06:09:25.598Z,4.77
2019-02-11T06:11:54.454Z,4.80
2019-02-11T06:14:24.831Z,4.81
2019-02-11T06:16:53.671Z,4.78
2019-02-11T06:19:22.534Z,4.81
2019-02-11T06:21:51.398Z,4.87
2019-02-11T06:24:20.284Z,4.86
2019-02-11T06:26:49.122Z,4.91
2019-02-11T06:29:19.063Z,4.83
2019-02-11T06:31:48.058Z,4.88
2019-02-11T06:34:16.911Z,4.93
2019-02-11T06:36:45.816Z,4.93
2019-02-11T06:39:14.684Z,4.92
2019-02-11T06:41:43.513Z,4.93
2019-02-11T06:44:29.098Z,4.93
2019-02-11T06:46:57.966Z,4.99
2019-02-11T06:49:26.823Z,4.98
2019-02-11T06:51:55.704Z,5.02
2019-02-11T06:54:24.563Z,5.03
2019-02-11T06:56:53.404Z,5.03
2019-02-11T06:59:22.286Z,5.09
2019-02-11T07:01:51.140Z,5.08
2019-02-11T07:04:20.019Z,5.18
2019-02-11T07:06:48.893Z,5.15
2019-02-11T07:09:17.754Z,5.20
2019-02-11T07:11:46.624Z,5.19
2019-02-11T07:14:15.496Z,5.15
2019-02-11T07:16:44.328Z,5.17
2019-02-11T07:19:13.194Z,5.14
2019-02-11T07:21:42.100Z,5.16
2019-02-11T07:24:10.984Z,5.15
2019-02-11T07:26:39.908Z,5.16
2019-02-11T07:29:08.786Z,5.09
2019-02-11T07:31:37.653Z,5.17
2019-02-11T07:34:06.515Z,5.23
2019-02-11T07:36:35.383Z,5.24
2019-02-11T07:39:07.282Z,5.25
2019-02-11T07:41:40.572Z,5.34
2019-02-11T07:44:11.064Z,5.34
2019-02-11T07:46:41.123Z,5.37
2019-02-11T07:49:10.003Z,5.34
2019-02-11T07:51:42.364Z,5.37
2019-02-11T07:54:09.523Z,5.36
2019-02-11T07:56:38.408Z,5.28
2019-02-11T07:59:07.307Z,5.08
2019-02-11T08:01:36.165Z,5.10
2019-02-11T08:04:05.046Z,5.12
2019-02-11T08:06:33.942Z,5.17
2019-02-11T08:09:04.419Z,5.15
2019-02-11T08:11:33.273Z,5.23
2019-02-11T08:14:02.159Z,5.33
2019-02-11T08:16:31.058Z,5.38
2019-02-11T08:18:59.899Z,5.40
2019-02-11T08:21:28.794Z,5.40
2019-02-11T08:23:57.655Z,5.47
2019-02-11T08:26:26.510Z,5.40
2019-02-11T08:28:55.375Z,5.48
2019-02-11T08:31:24.236Z,5.53
2019-02-11T08:33:53.106Z,5.60
2019-02-11T08:36:21.992Z,5.67
2019-02-11T08:38:50.856Z,5.77
2019-02-11T08:41:19.716Z,5.74
2019-02-11T08:43:48.596Z,5.80
2019-02-11T08:46:17.457Z,5.84
2019-02-11T08:48:46.332Z,5.91
2019-02-11T08:51:15.190Z,5.80
2019-02-11T08:53:44.046Z,5.83
2019-02-11T08:56:12.926Z,5.86
2019-02-11T08:58:41.776Z,5.83
2019-02-11T09:01:10.671Z,5.83
2019-02-11T09:03:39.537Z,5.84
2019-02-11T09:06:08.394Z,5.84
2019-02-11T09:08:37.278Z,5.85
2019-02-11T09:11:06.127Z,5.83
2019-02-11T09:13:34.989Z,5.86
2019-02-11T09:16:03.906Z,5.87
2019-02-11T09:18:32.829Z,5.92
2019-02-11T09:21:01.688Z,5.86
2019-02-11T09:23:30.554Z,5.79
2019-02-11T09:25:59.391Z,5.84
2019-02-11T09:28:28.312Z,5.84
2019-02-11T09:30:57.156Z,5.91
2019-02-11T09:33:26.016Z,5.84
2019-02-11T09:35:54.930Z,5.93
2019-02-11T09:38:23.842Z,6.06
2019-02-11T09:40:52.405Z,6.06
2019-02-11T09:43:20.977Z,6.02
2019-02-11T09:45:49.861Z,6.06
2019-02-11T09:48:18.751Z,6.06
2019-02-11T09:50:48.829Z,6.18
2019-02-11T09:53:17.719Z,6.18
2019-02-11T09:55:46.286Z,6.21
2019-02-11T09:58:14.852Z,6.35
2019-02-11T10:00:43.443Z,6.31
2019-02-11T10:03:12.013Z,6.27
2019-02-11T10:05:40.571Z,6.30
2019-02-11T10:08:09.168Z,6.31
2019-02-11T10:10:37.735Z,6.38
2019-02-11T10:13:06.338Z,6.44
2019-02-11T10:15:35.182Z,6.48
2019-02-11T10:18:03.753Z,6.53
2019-02-11T10:20:32.350Z,6.53
2019-02-11T10:23:01.212Z,6.42
2019-02-11T10:25:31.028Z,6.42
2019-02-11T10:28:05.526Z,6.43
2019-02-11T10:30:34.258Z,6.36
2019-02-11T10:33:02.822Z,6.38
2019-02-11T10:35:31.392Z,6.51
2019-02-11T10:38:00.025Z,6.53
2019-02-11T10:40:28.593Z,6.56
2019-02-11T10:42:57.172Z,6.50
2019-02-11T10:45:26.009Z,6.49
2019-02-11T10:47:54.612Z,6.55
2019-02-11T10:50:23.164Z,6.58
2019-02-11T10:52:51.729Z,6.63
2019-02-11T10:55:21.774Z,6.76
2019-02-11T10:57:50.323Z,6.70
2019-02-11T11:00:23.664Z,6.78
2019-02-11T11:02:52.227Z,6.91
2019-02-11T11:05:20.790Z,6.95
2019-02-11T11:07:49.710Z,6.96
2019-02-11T11:10:21.645Z,7.08
2019-02-11T11:12:50.208Z,7.05
2019-02-11T11:15:19.424Z,6.98
2019-02-11T11:17:47.996Z,6.99
2019-02-11T11:20:18.096Z,7.12
2019-02-11T11:22:46.824Z,7.04
2019-02-11T11:25:17.631Z,7.13
2019-02-11T11:27:46.224Z,7.18
2019-02-11T11:30:19.089Z,7.25
2019-02-11T11:32:47.878Z,7.16
2019-02-11T11:35:17.771Z,7.17
2019-02-11T11:37:46.335Z,7.29
2019-02-11T11:40:24.600Z,7.27
2019-02-11T11:42:53.162Z,7.22
2019-02-11T11:45:21.987Z,7.30
2019-02-11T11:47:50.592Z,7.30
2019-02-11T11:50:19.336Z,7.22
2019-02-11T11:52:47.961Z,7.29
2019-02-11T11:55:18.616Z,7.38
2019-02-11T11:57:47.388Z,7.41
2019-02-11T12:00:22.090Z,7.33
2019-02-11T12:03:01.515Z,7.16
2019-02-11T12:05:21.626Z,7.09
2019-02-11T12:07:50.197Z,7.06
2019-02-11T12:10:18.746Z,7.24
2019-02-11T12:12:47.340Z,7.33
2019-02-11T12:15:21.265Z,7.35
2019-02-11T12:17:50.118Z,7.33
2019-02-11T12:20:18.693Z,7.22
2019-02-11T12:22:47.322Z,7.26
2019-02-11T12:25:17.648Z,7.14
2019-02-11T12:27:46.263Z,7.16
2019-02-11T12:30:20.649Z,7.18
2019-02-11T12:32:49.230Z,7.23
2019-02-11T12:35:17.963Z,7.13
2019-02-11T12:37:46.514Z,7.12
2019-02-11T12:40:15.120Z,7.21
2019-02-11T12:42:43.884Z,6.90
2019-02-11T12:45:18.402Z,6.87
2019-02-11T12:47:46.982Z,6.82
2019-02-11T12:50:17.361Z,6.73
2019-02-11T12:52:46.032Z,6.71
2019-02-11T12:55:18.726Z,6.75
2019-02-11T12:57:47.288Z,6.81
2019-02-11T13:00:20.594Z,7.00
2019-02-11T13:02:49.460Z,7.10
2019-02-11T13:05:22.152Z,7.11
2019-02-11T13:07:48.745Z,7.12
2019-02-11T13:10:20.259Z,7.24
2019-02-11T13:12:49.192Z,7.17
2019-02-11T13:15:52.609Z,7.35
2019-02-11T13:17:49.689Z,7.36
2019-02-11T13:20:19.238Z,7.43
2019-02-11T13:22:48.118Z,7.51
2019-02-11T13:25:18.022Z,7.45
2019-02-11T13:27:46.707Z,7.48
2019-02-11T13:30:20.340Z,7.43
2019-02-11T13:32:48.980Z,7.49
2019-02-11T13:35:17.615Z,7.34
2019-02-11T13:37:46.369Z,7.37
2019-02-11T13:40:15.089Z,7.43
2019-02-11T13:42:43.722Z,7.38
2019-02-11T13:45:15.182Z,7.26
2019-02-11T13:47:53.749Z,7.30
2019-02-11T13:50:23.012Z,7.33
2019-02-11T13:52:51.924Z,7.29
2019-02-11T13:55:21.151Z,7.32
2019-02-11T13:57:50.148Z,7.37
2019-02-11T14:00:25.291Z,7.50
2019-02-11T14:02:58.966Z,7.67
2019-02-11T14:05:28.749Z,7.67
2019-02-11T14:07:59.761Z,7.82
2019-02-11T14:10:28.748Z,7.89
2019-02-11T14:12:57.667Z,7.80
2019-02-11T14:15:26.506Z,7.68
2019-02-11T14:18:10.446Z,7.62
2019-02-11T14:20:27.214Z,7.58
2019-02-11T14:22:55.781Z,7.29
2019-02-11T14:25:40.614Z,7.20
2019-02-11T14:27:54.658Z,7.24
2019-02-11T14:30:23.509Z,7.16
2019-02-11T14:32:52.322Z,7.23
2019-02-11T14:35:21.247Z,7.03
2019-02-11T14:37:50.103Z,7.11
2019-02-11T14:40:19.053Z,7.09
2019-02-11T14:42:47.666Z,7.11
2019-02-11T14:45:20.280Z,7.10
2019-02-11T14:47:48.888Z,7.09
2019-02-11T14:50:17.463Z,7.07
2019-02-11T14:52:46.083Z,7.00
2019-02-11T14:55:14.685Z,6.94
2019-02-11T14:57:43.275Z,6.91
2019-02-11T15:00:16.194Z,6.86
2019-02-11T15:02:44.779Z,6.81
2019-02-11T15:05:14.617Z,6.81
2019-02-11T15:07:44.407Z,6.80
2019-02-11T15:10:13.663Z,6.78
2019-02-11T15:12:42.231Z,6.74
2019-02-11T15:15:12.030Z,6.72
2019-02-11T15:17:42.262Z,6.66
2019-02-11T15:20:15.619Z,6.67
2019-02-11T15:22:44.234Z,6.67
2019-02-11T15:25:17.281Z,6.72
2019-02-11T15:27:45.827Z,6.68
2019-02-11T15:30:16.433Z,6.60
2019-02-11T15:32:45.025Z,6.61
2019-02-11T15:35:13.762Z,6.61
2019-02-11T15:37:42.315Z,6.57
2019-02-11T15:40:13.940Z,6.57
2019-02-11T15:42:42.501Z,6.53
2019-02-11T15:45:13.468Z,6.50
2019-02-11T15:47:42.327Z,6.47
2019-02-11T15:50:13.973Z,6.43
2019-02-11T15:52:42.518Z,6.48
2019-02-11T15:55:15.469Z,6.34
2019-02-11T15:57:44.339Z,6.33
2019-02-11T16:00:15.269Z,6.32
2019-02-11T16:02:44.138Z,6.28
2019-02-11T16:05:16.516Z,6.22
2019-02-11T16:07:43.085Z,6.18
2019-02-11T16:10:26.613Z,6.15
2019-02-11T16:12:55.231Z,6.15
2019-02-11T16:15:24.068Z,6.02
2019-02-11T16:17:52.930Z,5.97
2019-02-11T16:20:21.831Z,5.97
2019-02-11T16:22:50.655Z,5.86
2019-02-11T16:25:19.509Z,5.84
2019-02-11T16:27:48.386Z,5.81
2019-02-11T16:30:18.946Z,5.81
2019-02-11T16:32:47.857Z,5.72
2019-02-11T16:35:17.945Z,5.72
2019-02-11T16:37:47.184Z,5.69
2019-02-11T16:40:24.331Z,5.66
2019-02-11T16:42:53.183Z,5.58
2019-02-11T16:45:22.103Z,5.59
2019-02-11T16:47:51.069Z,5.45
2019-02-11T16:50:19.920Z,5.45
2019-02-11T16:52:48.791Z,5.45
2019-02-11T16:55:17.643Z,5.36
2019-02-11T16:57:46.528Z,5.36
2019-02-11T17:00:19.585Z,5.37
2019-02-11T17:02:48.524Z,5.38
2019-02-11T17:05:17.468Z,5.31
2019-02-11T17:07:46.324Z,5.31
2019-02-11T17:10:16.028Z,5.23
2019-02-11T17:12:44.901Z,5.23
2019-02-11T17:15:20.692Z,5.15
2019-02-11T17:17:49.564Z,5.20
2019-02-11T17:20:18.442Z,5.22
2019-02-11T17:22:47.304Z,5.22
2019-02-11T17:25:16.334Z,5.17
2019-02-11T17:27:45.206Z,5.15
2019-02-11T17:30:32.204Z,5.15
2019-02-11T17:33:01.118Z,5.15
2019-02-11T17:35:29.968Z,5.09
2019-02-11T17:37:58.842Z,5.09
2019-02-11T17:40:27.742Z,5.08
2019-02-11T17:42:56.601Z,5.03
2019-02-11T17:45:27.201Z,5.02
2019-02-11T17:47:56.216Z,5.04
2019-02-11T17:50:25.079Z,5.03
2019-02-11T17:52:56.738Z,5.05
2019-02-11T17:55:25.621Z,5.06
2019-02-11T17:57:54.480Z,5.04
2019-02-11T18:00:31.122Z,5.04
2019-02-11T18:03:00.037Z,4.99
2019-02-11T18:05:28.859Z,4.96
2019-02-11T18:07:57.723Z,4.97
2019-02-11T18:10:26.679Z,4.96
2019-02-11T18:12:55.569Z,4.97
2019-02-11T18:15:24.480Z,4.92
2019-02-11T18:17:53.350Z,4.94
2019-02-11T18:20:22.212Z,4.84
2019-02-11T18:22:51.097Z,4.91
2019-02-11T18:25:19.976Z,4.92
2019-02-11T18:27:48.848Z,4.94
2019-02-11T18:30:17.864Z,4.87
2019-02-11T18:32:46.963Z,4.80
2019-02-11T18:35:20.714Z,4.84
2019-02-11T18:37:49.590Z,4.82
2019-02-11T18:40:18.468Z,4.83
2019-02-11T18:42:47.335Z,4.79
2019-02-11T18:45:17.436Z,4.81
2019-02-11T18:47:46.430Z,4.78
2019-02-11T18:50:16.023Z,4.77
2019-02-11T18:52:44.875Z,4.75
2019-02-11T18:55:16.121Z,4.73
2019-02-11T18:57:46.161Z,4.73
2019-02-11T19:00:19.602Z,4.73
2019-02-11T19:02:49.144Z,4.76
2019-02-11T19:05:18.377Z,4.61
2019-02-11T19:07:47.274Z,4.65
2019-02-11T19:10:18.437Z,4.68
2019-02-11T19:12:47.377Z,4.68
2019-02-11T19:15:17.604Z,4.66
2019-02-11T19:17:46.528Z,4.69
2019-02-11T19:20:16.644Z,4.64
2019-02-11T19:22:45.526Z,4.59
2019-02-11T19:25:15.708Z,4.58
2019-02-11T19:27:45.071Z,4.59
2019-02-11T19:30:22.262Z,4.57
2019-02-11T19:32:51.170Z,4.54
2019-02-11T19:35:20.074Z,4.53
2019-02-11T19:37:48.934Z,4.45
2019-02-11T19:40:19.939Z,4.47
2019-02-11T19:42:48.864Z,4.45
2019-02-11T19:45:21.916Z,4.46
2019-02-11T19:47:50.757Z,4.43
2019-02-11T19:50:19.759Z,4.41
2019-02-11T19:52:48.811Z,4.41
2019-02-11T19:55:17.825Z,4.36
2019-02-11T19:57:46.946Z,4.32
2019-02-11T20:00:20.348Z,4.37
2019-02-11T20:02:50.182Z,4.36
2019-02-11T20:05:19.192Z,4.36
2019-02-11T20:07:48.207Z,4.41
2019-02-11T20:10:24.583Z,4.27
2019-02-11T20:12:53.442Z,4.28
2019-02-11T20:15:25.213Z,4.28
2019-02-11T20:17:54.154Z,4.28
2019-02-11T20:20:23.516Z,4.29
2019-02-11T20:22:52.398Z,4.23
2019-02-11T20:25:21.265Z,4.25
2019-02-11T20:27:51.080Z,4.16
2019-02-11T20:30:22.581Z,4.08
2019-02-11T20:32:51.494Z,4.16
2019-02-11T20:35:22.678Z,4.05
2019-02-11T20:37:51.516Z,4.10
2019-02-11T20:40:26.053Z,4.07
2019-02-11T20:42:54.954Z,3.98
2019-02-11T20:45:28.677Z,3.92
2019-02-11T20:47:57.813Z,4.00
2019-02-11T20:50:26.664Z,3.93
2019-02-11T20:52:55.569Z,3.92
2019-02-11T20:55:24.450Z,3.98
2019-02-11T20:57:56.062Z,3.90
2019-02-11T21:00:26.133Z,3.90
2019-02-11T21:02:54.996Z,3.86
2019-02-11T21:05:24.399Z,3.77
2019-02-11T21:07:53.282Z,3.84
2019-02-11T21:10:23.795Z,3.80
2019-02-11T21:12:54.201Z,3.76
2019-02-11T21:15:23.805Z,3.72
2019-02-11T21:17:52.671Z,3.75
2019-02-11T21:20:30.394Z,3.69
2019-02-11T21:22:59.316Z,3.71
2019-02-11T21:25:28.170Z,3.59
2019-02-11T21:27:57.021Z,3.64
2019-02-11T21:30:25.908Z,3.61
2019-02-11T21:32:54.786Z,3.62
2019-02-11T21:35:23.678Z,3.58
2019-02-11T21:37:52.583Z,3.54
2019-02-11T21:40:21.454Z,3.50
2019-02-11T21:42:50.335Z,3.49
2019-02-11T21:45:19.230Z,3.47
2019-02-11T21:47:48.110Z,3.43
2019-02-11T21:50:26.318Z,3.44
2019-02-11T21:52:49.838Z,3.42
2019-02-11T21:55:20.756Z,3.38
2019-02-11T21:57:49.894Z,3.40
2019-02-11T22:00:25.065Z,3.40
2019-02-11T22:02:53.976Z,3.35
2019-02-11T22:05:22.850Z,3.26
2019-02-11T22:07:51.777Z,3.29
2019-02-11T22:10:22.550Z,3.22
2019-02-11T22:12:51.452Z,3.25
2019-02-11T22:15:20.401Z,3.28
2019-02-11T22:17:49.248Z,3.22
2019-02-11T22:20:22.796Z,3.26
2019-02-11T22:22:51.670Z,3.29
2019-02-11T22:25:20.947Z,3.38
2019-02-11T22:27:49.847Z,3.16
2019-02-11T22:30:21.776Z,3.15
2019-02-11T22:32:50.639Z,3.10
2019-02-11T22:35:19.518Z,3.10
2019-02-11T22:37:50.347Z,3.15
2019-02-11T22:40:19.294Z,3.18
2019-02-11T22:42:48.148Z,3.18
2019-02-11T22:45:22.858Z,3.19
2019-02-11T22:47:51.722Z,3.26
2019-02-11T22:50:20.582Z,3.21
2019-02-11T22:52:49.446Z,3.26
2019-02-11T22:55:18.313Z,3.26
2019-02-11T22:57:47.271Z,3.27
2019-02-11T23:00:27.008Z,3.29
2019-02-11T23:02:55.896Z,3.24
2019-02-11T23:05:24.742Z,3.26
2019-02-11T23:07:53.600Z,3.28
2019-02-11T23:10:22.479Z,3.26
2019-02-11T23:12:51.350Z,3.26
2019-02-11T23:15:20.321Z,3.25
2019-02-11T23:17:49.171Z,3.27
2019-02-11T23:20:18.042Z,3.30
2019-02-11T23:22:46.913Z,3.23
2019-02-11T23:25:15.777Z,3.20
2019-02-11T23:27:44.670Z,3.28
2019-02-11T23:30:13.952Z,3.31
2019-02-11T23:32:42.840Z,3.38
2019-02-11T23:35:11.713Z,3.30
2019-02-11T23:37:40.592Z,3.32
2019-02-11T23:40:10.402Z,3.31
2019-02-11T23:42:39.250Z,3.29
2019-02-11T23:45:09.918Z,3.28
2019-02-11T23:47:38.805Z,3.26
2019-02-11T23:50:11.505Z,3.29
2019-02-11T23:52:40.353Z,3.33
2019-02-11T23:55:10.163Z,3.37
2019-02-11T23:57:39.010Z,3.39
